Time;durP1;ratioP1;P1;durP2;ratioP2;P2;SDS_P1;SDS_P2;PMS_P1;PMS_P2;Temp;Humidity;BMP_temperature;BMP_pressure;BME280_temperature;BME280_humidity;BME280_pressure;Samples;Min_cycle;Max_cycle;Signal;HPM_P1;HPM_P2
2021/08/07 00:01:50;;;;;;;6.72;1.98;;;;;;;19.32;62.07;100017.78;5080178;28;20047;-65
2021/08/07 00:04:18;;;;;;;12.05;1.75;;;;;;;19.14;62.48;100019.59;5096337;28;20048;-64
2021/08/07 00:06:45;;;;;;;7.90;1.80;;;;;;;18.93;62.79;100018.22;5096044;28;20060;-63
2021/08/07 00:09:12;;;;;;;8.23;1.67;;;;;;;18.99;63.05;100010.31;5096419;28;20047;-64
2021/08/07 00:11:40;;;;;;;6.15;1.40;;;;;;;19.00;63.18;100020.28;5061450;28;20437;-64
2021/08/07 00:14:07;;;;;;;10.10;2.13;;;;;;;18.94;63.19;100016.25;5096095;28;20063;-66
2021/08/07 00:16:34;;;;;;;9.85;1.60;;;;;;;18.90;63.19;100009.81;5095785;28;20055;-64
2021/08/07 00:19:02;;;;;;;11.55;1.70;;;;;;;18.77;63.73;100014.13;5061586;28;20044;-64
2021/08/07 00:21:30;;;;;;;8.38;2.50;;;;;;;18.78;63.73;100008.16;5077375;28;20040;-64
2021/08/07 00:23:57;;;;;;;7.50;1.90;;;;;;;18.66;64.11;100018.78;5095415;28;20048;-63
2021/08/07 00:26:24;;;;;;;6.15;1.60;;;;;;;18.71;64.06;100019.25;5095870;28;20056;-63
2021/08/07 00:28:52;;;;;;;8.80;1.85;;;;;;;18.64;64.38;100013.59;5061434;28;20533;-63
2021/08/07 00:31:20;;;;;;;6.20;1.70;;;;;;;18.63;64.52;100009.22;5061193;28;20056;-64
2021/08/07 00:33:47;;;;;;;9.95;2.10;;;;;;;18.68;64.41;100008.84;5061304;28;20062;-64
2021/08/07 00:36:15;;;;;;;6.70;1.33;;;;;;;18.66;64.69;99996.47;5076836;28;20056;-64
2021/08/07 00:38:43;;;;;;;8.55;1.88;;;;;;;18.49;65.12;100002.69;5081881;28;20055;-64
2021/08/07 00:41:10;;;;;;;10.45;2.13;;;;;;;18.59;64.96;100001.97;5057506;28;20047;-64
2021/08/07 00:43:38;;;;;;;9.45;2.13;;;;;;;18.58;64.65;100003.19;5040605;28;20375;-65
2021/08/07 00:46:15;;;;;;;7.28;1.70;;;;;;;18.50;64.92;100001.47;5041861;28;20049;-65
2021/08/07 00:48:42;;;;;;;7.32;1.77;;;;;;;18.67;64.13;99996.06;5075382;28;20093;-63
2021/08/07 00:51:10;;;;;;;6.85;1.35;;;;;;;18.79;63.82;100003.38;5056523;28;20055;-64
2021/08/07 00:53:46;;;;;;;9.15;1.70;;;;;;;18.69;64.17;99998.50;5063934;28;20064;-63
2021/08/07 00:56:19;;;;;;;7.93;1.65;;;;;;;18.42;64.94;99995.06;5056353;28;20060;-65
2021/08/07 00:58:51;;;;;;;7.95;1.90;;;;;;;18.30;65.53;99995.31;5057220;28;20178;-63
2021/08/07 01:01:24;;;;;;;8.82;1.67;;;;;;;18.42;64.99;99994.25;5072972;28;20048;-64
2021/08/07 01:03:54;;;;;;;8.18;1.70;;;;;;;18.47;64.97;99986.34;5057001;28;20044;-65
2021/08/07 01:07:05;;;;;;;7.18;1.73;;;;;;;18.46;64.98;99995.09;5074607;28;20742;-64
2021/08/07 01:09:48;;;;;;;7.75;1.83;;;;;;;18.43;64.86;99995.88;5056757;28;20104;-64
2021/08/07 01:12:40;;;;;;;10.27;1.70;;;;;;;18.33;65.16;99986.16;5056752;28;20539;-64
2021/08/07 01:15:12;;;;;;;8.48;2.38;;;;;;;18.30;65.63;99983.34;5060606;28;20048;-64
2021/08/07 01:17:41;;;;;;;8.75;1.98;;;;;;;18.11;65.71;99980.75;5076733;28;20056;-64
2021/08/07 01:20:11;;;;;;;7.57;1.77;;;;;;;18.18;65.51;99978.03;5043114;28;20683;-64
2021/08/07 01:23:10;;;;;;;9.70;1.83;;;;;;;18.15;66.36;99981.59;5076513;28;20059;-65
2021/08/07 01:26:10;;;;;;;8.80;2.03;;;;;;;18.14;66.04;99983.56;5072798;28;20053;-64
2021/08/07 01:28:43;;;;;;;8.37;1.40;;;;;;;18.24;65.50;99979.28;5057500;28;20049;-64
2021/08/07 01:31:13;;;;;;;7.82;1.80;;;;;;;18.08;66.02;99982.28;5056795;28;20059;-65
2021/08/07 01:33:42;;;;;;;9.35;1.88;;;;;;;18.19;65.55;99966.50;5074190;28;20056;-64
2021/08/07 01:36:16;;;;;;;6.32;1.40;;;;;;;18.04;66.10;99972.31;5056170;28;20407;-64
2021/08/07 01:38:49;;;;;;;9.35;1.38;;;;;;;17.88;66.65;99976.13;5056437;28;20182;-63
2021/08/07 01:41:20;;;;;;;5.18;1.33;;;;;;;17.88;66.56;99976.13;5056292;28;20101;-63
2021/08/07 01:43:54;;;;;;;6.50;1.55;;;;;;;17.64;67.03;99975.81;5055942;28;20049;-63
2021/08/07 01:46:27;;;;;;;10.43;2.03;;;;;;;17.85;66.68;99978.88;5056126;28;20048;-63
2021/08/07 01:49:04;;;;;;;10.93;1.83;;;;;;;17.83;66.62;99978.44;5056189;28;20082;-63
2021/08/07 01:51:55;;;;;;;8.80;1.77;;;;;;;17.75;67.00;99976.72;5040883;28;20048;-63
2021/08/07 01:54:31;;;;;;;8.48;1.77;;;;;;;18.12;65.79;99972.00;5039789;28;20063;-63
2021/08/07 01:57:05;;;;;;;6.97;1.42;;;;;;;18.10;65.74;99968.00;5040377;28;20051;-63
2021/08/07 01:59:34;;;;;;;9.20;1.60;;;;;;;17.85;66.35;99956.56;5059463;28;20052;-66
2021/08/07 02:02:03;;;;;;;12.52;1.58;;;;;;;17.87;66.11;99955.00;5059136;28;20052;-64
2021/08/07 02:04:43;;;;;;;9.40;1.83;;;;;;;17.84;66.10;99957.75;5093846;28;20048;-64
2021/08/07 02:07:19;;;;;;;5.63;1.30;;;;;;;17.73;66.56;99957.63;5093968;28;20044;-65
2021/08/07 02:09:53;;;;;;;8.95;1.60;;;;;;;17.62;67.02;99964.25;5075312;28;20079;-65
2021/08/07 02:12:21;;;;;;;13.65;1.85;;;;;;;17.79;66.66;99958.09;5057919;28;20040;-64
2021/08/07 02:14:52;;;;;;;7.72;1.80;;;;;;;17.55;67.30;99955.78;5060086;28;20493;-65
2021/08/07 02:17:20;;;;;;;8.27;1.70;;;;;;;17.63;67.06;99955.50;5055773;28;20419;-64
2021/08/07 02:19:50;;;;;;;10.15;2.05;;;;;;;17.62;66.98;99953.09;5056049;28;20040;-64
2021/08/07 02:22:19;;;;;;;9.65;1.80;;;;;;;17.54;67.35;99951.41;5072278;28;20509;-64
2021/08/07 02:24:47;;;;;;;6.63;1.65;;;;;;;17.54;67.36;99943.06;5055729;28;20048;-64
2021/08/07 02:27:25;;;;;;;8.82;1.73;;;;;;;17.47;67.43;99954.88;5055455;28;20060;-64
2021/08/07 02:29:53;;;;;;;6.72;1.50;;;;;;;17.62;67.22;99947.53;5055740;28;20063;-64
2021/08/07 02:32:21;;;;;;;7.65;1.77;;;;;;;17.73;66.48;99943.69;5069829;28;20044;-64
2021/08/07 02:34:55;;;;;;;6.55;1.70;;;;;;;17.65;66.98;99936.44;5054422;28;20059;-64
2021/08/07 02:37:28;;;;;;;10.93;2.15;;;;;;;17.57;67.37;99931.16;5072053;28;20056;-64
2021/08/07 02:39:56;;;;;;;10.80;1.90;;;;;;;17.73;66.76;99926.97;5071862;28;20052;-63
2021/08/07 02:42:24;;;;;;;8.55;1.83;;;;;;;17.68;66.77;99929.28;5055322;28;20049;-63
2021/08/07 02:44:52;;;;;;;9.55;1.83;;;;;;;17.62;67.17;99931.63;5055441;28;20052;-63
2021/08/07 02:47:23;;;;;;;10.02;1.77;;;;;;;17.59;67.37;99932.38;5055343;28;20059;-68
2021/08/07 02:49:55;;;;;;;6.38;1.58;;;;;;;17.68;67.32;99929.28;5055990;28;20423;-69
2021/08/07 02:52:23;;;;;;;10.63;1.88;;;;;;;17.63;67.23;99921.28;5055416;28;20045;-70
2021/08/07 02:54:50;;;;;;;9.13;1.40;;;;;;;17.49;67.76;99919.13;5057922;28;20058;-64
2021/08/07 02:57:19;;;;;;;7.55;1.60;;;;;;;17.51;67.84;99921.53;5058894;28;20055;-70
2021/08/07 02:59:47;;;;;;;9.95;1.90;;;;;;;17.33;68.80;99926.03;5075475;28;20525;-71
2021/08/07 03:02:15;;;;;;;12.00;2.17;;;;;;;17.55;68.18;99916.81;5058319;28;20048;-64
2021/08/07 03:04:46;;;;;;;11.38;2.00;;;;;;;17.53;68.52;99919.97;5074724;28;20048;-65
2021/08/07 03:07:14;;;;;;;8.25;2.08;;;;;;;17.65;68.26;99913.34;5093652;28;20052;-64
2021/08/07 03:09:42;;;;;;;10.98;1.70;;;;;;;17.57;68.25;99918.00;5075081;28;20055;-63
2021/08/07 03:12:13;;;;;;;10.73;1.90;;;;;;;17.69;68.14;99908.63;5073959;28;20063;-69
2021/08/07 03:14:42;;;;;;;8.90;1.63;;;;;;;17.77;68.02;99910.28;5046675;28;20055;-69
2021/08/07 03:17:11;;;;;;;;;;;;;;;17.65;68.43;99908.59;5055281;28;20048;-69
2021/08/07 03:19:41;;;;;;;9.80;1.80;;;;;;;17.48;69.34;99902.78;5038452;28;20027;-69
2021/08/07 03:22:09;;;;;;;11.15;1.70;;;;;;;17.51;69.19;99902.84;5041354;28;20057;-70
2021/08/07 03:24:38;;;;;;;6.97;1.38;;;;;;;17.64;68.84;99901.38;5058695;28;20054;-64
2021/08/07 03:27:06;;;;;;;11.02;1.83;;;;;;;17.60;68.85;99897.78;5077056;28;20059;-64
2021/08/07 03:29:34;;;;;;;12.45;2.47;;;;;;;17.83;68.19;99892.06;5058815;28;20052;-64
2021/08/07 03:32:08;;;;;;;7.57;1.67;;;;;;;17.56;69.13;99898.91;5054686;28;20056;-64
2021/08/07 03:34:40;;;;;;;10.05;2.22;;;;;;;17.50;69.50;99892.91;5058437;28;20052;-64
2021/08/07 03:37:08;;;;;;;11.20;1.90;;;;;;;17.44;69.71;99885.19;5058786;28;20048;-64
2021/08/07 03:39:40;;;;;;;7.72;1.75;;;;;;;17.52;69.43;99884.94;5058812;28;20048;-64
2021/08/07 03:42:08;;;;;;;7.18;1.65;;;;;;;17.40;69.76;99889.94;5041226;28;20117;-64
2021/08/07 03:44:35;;;;;;;6.30;1.90;;;;;;;17.27;70.29;99883.81;5057859;28;20067;-64
2021/08/07 03:47:02;;;;;;;9.35;1.80;;;;;;;17.50;69.90;99889.31;5041656;28;20056;-70
2021/08/07 03:49:30;;;;;;;8.73;1.80;;;;;;;17.45;69.67;99889.63;5078450;28;20713;-70
2021/08/07 03:51:58;;;;;;;8.02;1.70;;;;;;;17.53;69.50;99874.63;5061241;28;20052;-70
2021/08/07 03:54:25;;;;;;;8.00;1.83;;;;;;;17.35;70.22;99870.78;5095684;28;20044;-70
2021/08/07 03:56:57;;;;;;;8.25;1.50;;;;;;;17.50;69.57;99873.41;5096493;28;20568;-69
2021/08/07 03:59:24;;;;;;;4.82;1.55;;;;;;;17.44;69.72;99868.50;5078227;28;20059;-63
2021/08/07 04:01:53;;;;;;;10.20;1.80;;;;;;;17.45;69.73;99876.47;5077908;28;20502;-63
2021/08/07 04:04:24;;;;;;;10.52;2.25;;;;;;;17.32;70.26;99866.78;5077445;28;20075;-65
2021/08/07 04:06:52;;;;;;;5.55;1.40;;;;;;;17.37;70.12;99866.44;5057815;28;20061;-63
2021/08/07 04:09:36;;;;;;;9.95;1.70;;;;;;;17.35;70.38;99868.78;5041074;28;20052;-63
2021/08/07 04:12:04;;;;;;;10.82;2.40;;;;;;;17.46;69.77;99855.00;5057797;28;20060;-63
2021/08/07 04:14:36;;;;;;;11.95;2.10;;;;;;;17.27;71.00;99869.09;5076874;28;20059;-69
2021/08/07 04:17:04;;;;;;;9.27;1.90;;;;;;;17.28;70.94;99873.47;5077543;28;20056;-69
2021/08/07 04:19:31;;;;;;;13.20;1.92;;;;;;;17.21;71.20;99876.19;5078085;28;20411;-63
2021/08/07 04:22:12;;;;;;;9.07;1.75;;;;;;;17.26;71.43;99878.63;5077553;28;20059;-64
2021/08/07 04:24:42;;;;;;;12.38;2.10;;;;;;;17.36;71.15;99867.63;5096451;28;20047;-62
2021/08/07 04:27:13;;;;;;;;;;;;;;;17.32;71.13;99871.53;5074290;28;20410;-69
2021/08/07 04:29:41;;;;;;;10.15;1.80;;;;;;;17.20;71.80;99867.03;5057113;28;19928;-68
2021/08/07 04:32:08;;;;;;;7.88;2.03;;;;;;;17.04;72.24;99863.63;5057055;28;20446;-68
2021/08/07 04:34:36;;;;;;;10.90;2.42;;;;;;;17.26;71.83;99868.28;5057258;28;20055;-69
2021/08/07 04:37:05;;;;;;;9.95;1.95;;;;;;;17.25;71.94;99863.09;5057391;28;20135;-69
2021/08/07 04:39:34;;;;;;;8.10;2.13;;;;;;;17.12;72.25;99854.19;5057725;28;20055;-69
2021/08/07 04:42:03;;;;;;;8.55;2.15;;;;;;;17.13;72.53;99855.00;5061163;28;20134;-70
2021/08/07 04:44:32;;;;;;;13.00;2.10;;;;;;;17.15;72.53;99861.00;5077307;28;20047;-69
2021/08/07 04:47:00;;;;;;;9.45;2.03;;;;;;;17.12;72.98;99861.75;5077191;28;20406;-69
2021/08/07 04:49:28;;;;;;;12.10;2.10;;;;;;;17.15;72.39;99855.41;5077265;28;20048;-63
2021/08/07 04:51:58;;;;;;;12.25;2.70;;;;;;;16.91;73.70;99861.47;5076591;28;20575;-64
2021/08/07 04:54:25;;;;;;;9.88;2.30;;;;;;;16.76;74.39;99854.88;5077474;28;20051;-63
2021/08/07 04:56:53;;;;;;;9.95;2.25;;;;;;;16.80;74.18;99856.56;5060560;28;20054;-63
2021/08/07 04:59:21;;;;;;;9.38;2.40;;;;;;;16.90;73.87;99855.09;5077402;28;20058;-64
2021/08/07 05:01:48;;;;;;;13.38;3.03;;;;;;;16.83;74.10;99853.00;5089093;28;20391;-64
2021/08/07 05:04:16;;;;;;;14.35;2.58;;;;;;;16.65;75.12;99851.13;5056935;28;20407;-64
2021/08/07 05:06:46;;;;;;;16.45;2.47;;;;;;;16.58;75.28;99851.06;5039695;28;20044;-64
2021/08/07 05:09:15;;;;;;;10.73;1.92;;;;;;;16.64;75.77;99849.53;5057165;28;20518;-69
2021/08/07 05:12:08;;;;;;;13.77;2.17;;;;;;;16.66;75.65;99847.19;5056974;28;20052;-64
2021/08/07 05:14:39;;;;;;;11.82;2.40;;;;;;;16.79;75.18;99841.03;5040683;28;20144;-63
2021/08/07 05:17:07;;;;;;;12.75;2.50;;;;;;;16.83;74.73;99832.72;5039846;28;20057;-70
2021/08/07 05:19:35;;;;;;;10.82;2.30;;;;;;;16.64;75.79;99838.41;5094921;28;20048;-69
2021/08/07 05:22:02;;;;;;;12.82;2.53;;;;;;;16.66;76.30;99834.09;5060003;28;20490;-69
2021/08/07 05:24:31;;;;;;;10.93;2.33;;;;;;;16.75;75.96;99822.69;5059696;28;20134;-63
2021/08/07 05:26:58;;;;;;;8.65;2.40;;;;;;;16.89;74.93;99814.56;5076558;28;20055;-68
2021/08/07 05:29:25;;;;;;;14.48;2.75;;;;;;;16.82;75.45;99815.22;5076610;28;20055;-70
2021/08/07 05:31:53;;;;;;;8.90;1.90;;;;;;;16.91;75.16;99823.31;5059942;28;20047;-69
2021/08/07 05:34:20;;;;;;;10.77;2.30;;;;;;;16.73;75.97;99813.94;5059698;28;20048;-70
2021/08/07 05:36:47;;;;;;;13.63;3.38;;;;;;;16.89;75.99;99811.78;5072002;28;20048;-69
2021/08/07 05:39:15;;;;;;;10.10;2.45;;;;;;;17.05;74.98;99812.34;5039974;28;20067;-71
2021/08/07 05:41:42;;;;;;;16.38;2.58;;;;;;;16.96;75.63;99811.06;5074286;28;20344;-63
2021/08/07 05:44:09;;;;;;;12.75;2.38;;;;;;;17.29;74.37;99811.88;5073500;28;20041;-64
2021/08/07 05:46:37;;;;;;;14.68;2.40;;;;;;;17.12;74.53;99809.66;5056001;28;20415;-63
2021/08/07 05:49:04;;;;;;;9.40;2.60;;;;;;;17.03;75.25;99817.53;5055465;28;20052;-69
2021/08/07 05:51:35;;;;;;;16.95;2.47;;;;;;;17.04;75.12;99815.50;5056366;28;20057;-70
2021/08/07 05:54:04;;;;;;;8.60;2.37;;;;;;;17.07;74.95;99821.13;5067747;28;20063;-65
2021/08/07 05:56:31;;;;;;;10.30;2.30;;;;;;;17.07;74.67;99815.56;5059601;28;20668;-63
2021/08/07 05:58:59;;;;;;;12.93;2.55;;;;;;;17.21;74.40;99820.53;5076005;28;20054;-65
2021/08/07 06:01:26;;;;;;;9.05;2.35;;;;;;;17.23;74.52;99807.81;5075790;28;20044;-64
2021/08/07 06:03:54;;;;;;;10.75;2.17;;;;;;;17.10;74.89;99812.03;5059473;28;20048;-64
2021/08/07 06:06:21;;;;;;;12.25;2.65;;;;;;;17.27;74.49;99814.22;5093479;28;20063;-64
2021/08/07 06:08:49;;;;;;;11.27;2.45;;;;;;;17.22;74.66;99822.94;5075737;28;20056;-63
2021/08/07 06:11:17;;;;;;;15.40;2.75;;;;;;;17.19;74.92;99814.53;5059192;28;20430;-63
2021/08/07 06:13:44;;;;;;;11.05;2.38;;;;;;;17.37;74.23;99813.53;5073659;28;20056;-63
2021/08/07 06:16:12;;;;;;;11.77;2.00;;;;;;;17.40;73.98;99823.91;5055541;28;20052;-62
2021/08/07 06:18:40;;;;;;;11.15;2.20;;;;;;;17.60;73.29;99819.81;5038950;28;20458;-64
2021/08/07 06:21:07;;;;;;;10.95;2.10;;;;;;;17.83;72.58;99814.06;5022684;28;20045;-63
2021/08/07 06:23:35;;;;;;;10.07;2.60;;;;;;;17.40;73.70;99823.91;5039359;28;20063;-63
2021/08/07 06:26:03;;;;;;;11.77;2.22;;;;;;;17.47;73.67;99823.25;5055725;28;20042;-65
2021/08/07 06:28:32;;;;;;;10.60;2.03;;;;;;;17.22;74.57;99811.78;5055724;28;20375;-63
2021/08/07 06:31:00;;;;;;;14.07;2.60;;;;;;;17.30;74.70;99812.66;5038910;28;20048;-65
2021/08/07 06:33:28;;;;;;;12.90;2.22;;;;;;;17.23;75.19;99815.34;5055254;28;20051;-66
2021/08/07 06:35:55;;;;;;;11.73;2.65;;;;;;;17.43;74.75;99816.78;5038577;28;20064;-62
2021/08/07 06:38:27;;;;;;;12.23;2.45;;;;;;;17.36;74.27;99820.31;5056014;28;20059;-63
2021/08/07 06:40:55;;;;;;;7.65;2.00;;;;;;;17.25;75.32;99811.03;5038932;28;20059;-63
2021/08/07 06:43:23;;;;;;;11.10;2.85;;;;;;;17.36;74.97;99802.78;5054802;28;20049;-66
2021/08/07 06:46:09;;;;;;;10.32;2.03;;;;;;;17.54;74.58;99804.63;5044274;28;20407;-65
2021/08/07 06:48:37;;;;;;;12.73;2.28;;;;;;;17.49;74.58;99804.97;5054963;28;20056;-64
2021/08/07 06:51:05;;;;;;;12.20;2.30;;;;;;;17.69;73.75;99798.03;5038691;28;20565;-64
2021/08/07 06:53:33;;;;;;;12.00;2.22;;;;;;;17.57;74.19;99798.28;5054894;28;20543;-63
2021/08/07 06:56:01;;;;;;;10.50;2.40;;;;;;;17.70;73.81;99805.19;5055135;28;20049;-65
2021/08/07 06:58:30;;;;;;;9.32;2.70;;;;;;;17.75;73.24;99795.66;5037956;28;20511;-64
2021/08/07 07:00:58;;;;;;;11.68;2.92;;;;;;;17.85;73.30;99808.91;5026892;28;20056;-64
2021/08/07 07:03:26;;;;;;;9.95;2.13;;;;;;;17.95;72.63;99800.66;5038380;28;20059;-64
2021/08/07 07:05:54;;;;;;;10.00;2.33;;;;;;;18.13;72.17;99800.81;5022354;28;20064;-63
2021/08/07 07:08:21;;;;;;;10.25;2.30;;;;;;;18.20;71.30;99795.25;5055036;28;20048;-64
2021/08/07 07:10:48;;;;;;;10.93;2.25;;;;;;;18.19;71.75;99798.44;5054911;28;20510;-64
2021/08/07 07:13:16;;;;;;;12.40;2.13;;;;;;;18.39;71.33;99800.59;5047114;28;20517;-64
2021/08/07 07:15:43;;;;;;;11.45;3.15;;;;;;;18.63;70.78;99805.56;5074351;28;20044;-64
2021/08/07 07:18:10;;;;;;;16.80;4.22;;;;;;;18.53;70.62;99797.91;5054693;28;20052;-64
2021/08/07 07:20:39;;;;;;;14.10;2.83;;;;;;;18.44;71.11;99796.69;5040824;28;20511;-64
2021/08/07 07:23:12;;;;;;;10.55;2.22;;;;;;;18.59;71.03;99790.00;5075114;28;20051;-64
2021/08/07 07:25:40;;;;;;;8.67;2.17;;;;;;;18.99;69.44;99789.81;5071264;28;20051;-65
2021/08/07 07:28:08;;;;;;;8.93;2.08;;;;;;;19.22;68.49;99789.50;5055339;28;20287;-65
2021/08/07 07:30:36;;;;;;;15.10;2.20;;;;;;;19.13;68.84;99789.88;5054503;28;20053;-65
2021/08/07 07:33:04;;;;;;;8.25;2.05;;;;;;;19.03;69.01;99779.47;5059866;28;20157;-64
2021/08/07 07:35:32;;;;;;;12.70;1.75;;;;;;;19.29;68.33;99778.34;5074794;28;20048;-64
2021/08/07 07:37:59;;;;;;;11.98;2.20;;;;;;;19.30;68.19;99779.97;5093151;28;20044;-64
2021/08/07 07:40:26;;;;;;;8.00;1.70;;;;;;;19.38;67.69;99778.81;5073954;28;20439;-64
2021/08/07 07:42:54;;;;;;;11.98;2.30;;;;;;;19.33;67.78;99782.00;5068497;28;20052;-65
2021/08/07 07:45:21;;;;;;;13.02;2.10;;;;;;;19.47;67.00;99785.63;5057761;28;20063;-65
2021/08/07 07:47:49;;;;;;;12.95;2.17;;;;;;;19.76;65.99;99772.50;5066981;28;20064;-63
2021/08/07 07:50:17;;;;;;;12.80;4.60;;;;;;;19.75;66.37;99771.69;5054491;28;20070;-65
2021/08/07 07:52:50;;;;;;;5.72;1.80;;;;;;;19.81;66.02;99772.91;5069967;28;20064;-64
2021/08/07 07:55:19;;;;;;;9.27;1.70;;;;;;;19.94;65.46;99770.53;5058382;28;20059;-65
2021/08/07 07:57:46;;;;;;;10.88;1.90;;;;;;;20.26;64.88;99762.94;5073529;28;20055;-65
2021/08/07 08:00:15;;;;;;;10.35;1.65;;;;;;;20.03;63.95;99752.13;5071771;28;20044;-64
2021/08/07 08:02:45;;;;;;;14.10;1.77;;;;;;;20.14;63.68;99754.94;5070267;28;20628;-64
2021/08/07 08:05:19;;;;;;;10.70;2.25;;;;;;;20.41;62.98;99764.53;5073047;28;20055;-64
2021/08/07 08:07:46;;;;;;;8.93;2.08;;;;;;;20.70;61.22;99740.88;5077413;28;20052;-63
2021/08/07 08:10:15;;;;;;;9.13;1.50;;;;;;;20.25;62.18;99744.56;5061109;28;20056;-63
2021/08/07 08:12:44;;;;;;;10.35;1.95;;;;;;;20.10;62.40;99757.72;5066178;28;20044;-65
2021/08/07 08:15:13;;;;;;;9.55;2.20;;;;;;;20.46;62.29;99752.94;5062740;28;20059;-66
2021/08/07 08:17:41;;;;;;;9.23;2.03;;;;;;;20.86;61.59;99744.00;5077942;28;20048;-66
2021/08/07 08:20:09;;;;;;;7.25;1.60;;;;;;;21.21;60.57;99745.88;5077100;28;20056;-65
2021/08/07 08:22:37;;;;;;;9.15;1.85;;;;;;;21.54;58.71;99739.69;5077340;28;20048;-65
2021/08/07 08:25:08;;;;;;;12.50;1.75;;;;;;;21.76;57.16;99724.28;5077867;28;20052;-65
2021/08/07 08:27:36;;;;;;;10.27;2.60;;;;;;;21.86;56.94;99729.03;5070570;28;20600;-65
2021/08/07 08:30:05;;;;;;;9.75;2.47;;;;;;;21.42;58.04;99736.56;5073462;28;20048;-65
2021/08/07 08:32:35;;;;;;;10.45;2.22;;;;;;;21.19;58.93;99729.50;5055830;28;20059;-67
2021/08/07 08:35:04;;;;;;;13.73;3.53;;;;;;;21.06;59.23;99730.38;5056841;28;20048;-67
2021/08/07 08:37:32;;;;;;;15.43;3.10;;;;;;;21.22;59.31;99731.47;5056746;28;20419;-65
2021/08/07 08:40:00;;;;;;;13.80;3.28;;;;;;;21.32;58.94;99721.41;5077069;28;20048;-64
2021/08/07 08:42:27;;;;;;;11.00;2.85;;;;;;;21.44;59.01;99726.53;5043024;28;20056;-64
2021/08/07 08:44:55;;;;;;;13.60;2.67;;;;;;;21.24;59.37;99723.47;5076147;28;20048;-65
2021/08/07 08:47:23;;;;;;;11.07;2.75;;;;;;;21.47;58.82;99713.69;5080097;28;20047;-66
2021/08/07 08:49:52;;;;;;;15.27;2.85;;;;;;;21.38;59.23;99711.34;5050348;28;20044;-65
2021/08/07 08:52:25;;;;;;;12.57;2.80;;;;;;;21.29;59.77;99719.41;5059718;28;20067;-64
2021/08/07 08:54:53;;;;;;;13.95;3.00;;;;;;;21.08;60.59;99703.53;5075179;28;20415;-65
2021/08/07 08:57:22;;;;;;;14.40;2.67;;;;;;;21.23;60.48;99713.44;5072394;28;20045;-66
2021/08/07 08:59:50;;;;;;;9.93;2.08;;;;;;;21.40;59.88;99703.34;5058175;28;20554;-65
2021/08/07 09:02:18;;;;;;;9.70;2.53;;;;;;;21.09;61.41;99702.34;5066617;28;20056;-66
2021/08/07 09:04:47;;;;;;;10.52;1.73;;;;;;;21.04;61.86;99704.78;5070065;28;20048;-66
2021/08/07 09:07:16;;;;;;;12.95;2.50;;;;;;;20.99;62.56;99708.78;5043168;28;20044;-65
2021/08/07 09:09:52;;;;;;;12.77;4.13;;;;;;;20.91;64.07;99706.38;5086763;28;20043;-66
2021/08/07 09:12:38;;;;;;;11.65;2.58;;;;;;;20.56;66.64;99704.53;5074191;28;20063;-65
2021/08/07 09:15:23;;;;;;;10.40;2.38;;;;;;;20.49;68.08;99710.16;5074821;28;20494;-64
2021/08/07 09:18:10;;;;;;;10.32;2.20;;;;;;;20.67;67.55;99701.69;5081198;28;20051;-67
2021/08/07 09:20:46;;;;;;;;;;;;;;;20.57;69.41;99699.75;5068784;28;20430;-64
2021/08/07 09:23:14;;;;;;;13.32;2.83;;;;;;;20.77;69.20;99693.25;5094364;28;19943;-64
2021/08/07 09:25:45;;;;;;;8.23;1.85;;;;;;;20.80;69.36;99688.88;5076479;28;20047;-65
2021/08/07 09:28:13;;;;;;;9.43;2.45;;;;;;;20.86;69.29;99696.44;5075297;28;20047;-65
2021/08/07 09:30:41;;;;;;;7.25;2.40;;;;;;;21.04;69.67;99699.16;5089402;28;20045;-65
2021/08/07 09:33:13;;;;;;;7.55;2.47;;;;;;;20.99;69.59;99694.00;5089115;28;20055;-64
2021/08/07 09:35:44;;;;;;;7.32;1.88;;;;;;;20.69;70.27;99690.91;5065818;28;20051;-64
2021/08/07 09:38:21;;;;;;;8.95;2.20;;;;;;;20.77;70.64;99690.47;5075921;28;20052;-63
2021/08/07 09:41:01;;;;;;;30.42;3.03;;;;;;;20.76;71.28;99688.06;5062147;28;20059;-62
2021/08/07 09:43:40;;;;;;;9.95;2.17;;;;;;;20.70;71.15;99684.09;5075395;28;20051;-64
2021/08/07 09:46:20;;;;;;;11.30;2.97;;;;;;;20.79;70.67;99681.66;5071472;28;20052;-64
2021/08/07 09:48:53;;;;;;;8.73;1.90;;;;;;;20.55;70.61;99682.56;5075752;28;20060;-67
2021/08/07 09:51:30;;;;;;;13.93;4.35;;;;;;;20.71;70.46;99675.28;5054676;28;20391;-65
2021/08/07 09:54:03;;;;;;;12.23;3.42;;;;;;;20.66;70.31;99680.53;5075773;28;20052;-64
2021/08/07 09:56:46;;;;;;;11.27;2.30;;;;;;;20.71;69.91;99686.47;5075369;28;20063;-65
2021/08/07 09:59:14;;;;;;;10.95;2.83;;;;;;;20.68;69.87;99700.47;5075367;28;20568;-65
2021/08/07 10:01:43;;;;;;;11.27;2.37;;;;;;;20.75;69.70;99690.06;5056378;28;20040;-66
2021/08/07 10:04:14;;;;;;;9.25;2.80;;;;;;;20.66;70.04;99686.91;5062782;28;20067;-65
2021/08/07 10:06:45;;;;;;;9.70;2.28;;;;;;;20.56;69.50;99693.34;5074730;28;20044;-66
2021/08/07 10:09:20;;;;;;;5.50;1.75;;;;;;;20.69;69.32;99690.91;5059495;28;20109;-66
2021/08/07 10:12:20;;;;;;;6.68;2.35;;;;;;;20.14;71.87;99691.44;5072373;28;20056;-66
2021/08/07 10:14:52;;;;;;;8.70;2.90;;;;;;;20.12;72.92;99696.63;5004802;28;20060;-66
2021/08/07 10:17:24;;;;;;;10.07;2.83;;;;;;;19.96;73.01;99693.44;5070457;28;20048;-65
2021/08/07 10:19:52;;;;;;;13.23;4.18;;;;;;;20.10;72.19;99682.22;5041890;28;20052;-66
2021/08/07 10:22:22;;;;;;;5.93;2.40;;;;;;;20.15;72.25;99681.03;5075214;28;20040;-66
2021/08/07 10:25:04;;;;;;;12.15;4.05;;;;;;;20.30;71.82;99676.22;5071871;28;20301;-64
2021/08/07 10:27:34;;;;;;;9.60;2.45;;;;;;;20.08;72.66;99678.25;5049155;28;20049;-64
2021/08/07 10:30:04;;;;;;;19.45;10.57;;;;;;;20.35;72.57;99679.41;5070080;28;20052;-63
2021/08/07 10:32:39;;;;;;;6.47;1.70;;;;;;;20.20;72.69;99677.88;5073565;28;20529;-65
2021/08/07 10:35:09;;;;;;;11.45;2.50;;;;;;;20.49;71.99;99657.00;5056998;28;20059;-67
2021/08/07 10:37:38;;;;;;;7.15;2.25;;;;;;;20.35;73.25;99654.25;5058629;28;20044;-66
2021/08/07 10:40:08;;;;;;;5.28;1.88;;;;;;;20.43;72.67;99647.44;5062328;28;20495;-65
2021/08/07 10:42:36;;;;;;;5.93;1.40;;;;;;;20.45;71.88;99645.00;5073536;28;20055;-65
2021/08/07 10:45:08;;;;;;;7.82;2.15;;;;;;;20.68;71.10;99644.50;5065715;28;20083;-64
2021/08/07 10:47:43;;;;;;;4.22;1.42;;;;;;;20.63;71.07;99644.94;5085089;28;20032;-64
2021/08/07 10:50:24;;;;;;;7.18;2.10;;;;;;;20.70;71.44;99640.13;5071680;28;20048;-65
2021/08/07 10:52:54;;;;;;;7.15;2.38;;;;;;;20.89;70.81;99639.63;5052901;28;20056;-66
2021/08/07 10:55:51;;;;;;;10.23;1.90;;;;;;;20.96;70.74;99650.78;5055594;28;20052;-64
2021/08/07 10:58:38;;;;;;;6.00;1.50;;;;;;;21.13;69.33;99647.09;5083388;28;20047;-63
2021/08/07 11:01:24;;;;;;;8.60;2.20;;;;;;;21.42;68.92;99638.50;5082505;28;20056;-65
2021/08/07 11:04:01;;;;;;;9.90;1.92;;;;;;;21.43;69.43;99642.91;5065468;28;20507;-64
2021/08/07 11:06:43;;;;;;;6.05;1.60;;;;;;;21.42;69.55;99630.09;5083794;28;20059;-64
2021/08/07 11:09:24;;;;;;;5.10;1.55;;;;;;;21.73;68.22;99629.81;5064998;28;20055;-65
2021/08/07 11:12:07;;;;;;;6.55;1.80;;;;;;;21.76;69.38;99636.63;5087128;28;20050;-64
2021/08/07 11:14:34;;;;;;;6.65;1.70;;;;;;;22.02;68.14;99627.56;5092750;28;20062;-65
2021/08/07 11:17:02;;;;;;;5.50;1.83;;;;;;;22.13;68.07;99637.47;5086591;28;20055;-64
2021/08/07 11:20:07;;;;;;;4.78;1.67;;;;;;;22.29;67.25;99620.06;5091454;28;20055;-66
2021/08/07 11:25:21;;;;;;;4.75;1.42;;;;;;;22.51;63.94;99607.34;5068815;28;20070;-64
2021/08/07 11:27:52;;;;;;;4.20;1.23;;;;;;;22.45;63.67;99606.22;5092540;28;20499;-64
2021/08/07 11:30:27;;;;;;;6.07;1.58;;;;;;;22.10;63.99;99604.66;5073289;28;20438;-66
2021/08/07 11:33:01;;;;;;;4.75;1.48;;;;;;;22.22;64.04;99578.84;5074248;28;20551;-64
2021/08/07 11:38:05;;;;;;;5.97;1.23;;;;;;;22.25;63.70;99568.78;5088059;28;20051;-65
2021/08/07 11:40:57;;;;;;;4.78;1.08;;;;;;;22.55;62.87;99585.69;5075928;28;20055;-65
2021/08/07 11:43:28;;;;;;;6.82;2.35;;;;;;;22.50;62.70;99591.72;5095532;28;20059;-65
2021/08/07 11:46:04;;;;;;;6.10;1.73;;;;;;;22.90;62.16;99595.63;5096409;28;20410;-66
2021/08/07 11:48:35;;;;;;;6.50;1.83;;;;;;;22.76;61.45;99604.25;5096086;28;20047;-66
2021/08/07 11:51:14;;;;;;;;;;;;;;;22.76;60.21;99610.66;5062184;28;20075;-65
2021/08/07 11:53:43;;;;;;;8.88;2.03;;;;;;;22.60;60.22;99615.28;5076926;28;19920;-65